Time;durP1;ratioP1;P1;durP2;ratioP2;P2;SDS_P1;SDS_P2;PMS_P1;PMS_P2;Temp;Humidity;BMP_temperature;BMP_pressure;BME280_temperature;BME280_humidity;BME280_pressure;Samples;Min_cycle;Max_cycle;Signal;HPM_P1;HPM_P2
2020/12/06 12:20:00;;;;;;;9.63;6.22;;;;;;;13.65;26.98;101956.69;1814421;79;22992;-72
2020/12/06 12:22:28;;;;;;;8.83;6.45;;;;;;;10.20;29.46;101968.02;1788104;80;21205;-72
2020/12/06 12:25:05;;;;;;;6.17;4.53;;;;;;;7.57;33.26;101978.16;1788060;80;21543;-74
2020/12/06 12:27:33;;;;;;;10.18;5.35;;;;;;;6.01;35.99;101974.92;1751188;80;21177;-73
2020/12/06 12:30:01;;;;;;;8.63;5.55;;;;;;;4.89;37.91;101980.73;1782922;80;21176;-73
2020/12/06 12:32:30;;;;;;;9.23;5.80;;;;;;;4.15;39.88;101988.53;1746053;82;21169;-72
2020/12/06 12:34:58;;;;;;;8.90;5.47;;;;;;;3.60;41.52;101980.80;1767640;80;21465;-73
2020/12/06 12:37:33;;;;;;;8.38;5.70;;;;;;;3.36;40.85;101978.33;1787336;80;22030;-75
2020/12/06 12:40:03;;;;;;;7.47;5.08;;;;;;;3.07;42.42;101980.75;1783628;80;21676;-75
2020/12/06 12:42:30;;;;;;;8.18;5.37;;;;;;;2.93;43.07;101974.55;1785089;80;21150;-75
2020/12/06 12:44:58;;;;;;;9.40;5.12;;;;;;;2.69;43.91;101974.62;1734956;81;21660;-74
2020/12/06 12:47:27;;;;;;;9.28;5.62;;;;;;;2.62;43.90;101975.66;1700330;83;21237;-76
2020/12/06 12:49:55;;;;;;;15.30;9.40;;;;;;;2.66;44.17;101973.39;1698618;84;22004;-74
2020/12/06 12:52:23;;;;;;;13.00;8.33;;;;;;;2.49;44.05;101976.34;1721785;83;21165;-75
2020/12/06 12:54:52;;;;;;;10.58;6.22;;;;;;;2.36;44.94;101965.75;1709271;83;21200;-73
2020/12/06 12:57:29;;;;;;;9.23;5.30;;;;;;;2.29;45.03;101970.67;1712745;83;21182;-74
2020/12/06 12:59:59;;;;;;;7.87;5.12;;;;;;;2.17;45.03;101965.25;1700183;83;21216;-72
2020/12/06 13:02:27;;;;;;;9.73;5.17;;;;;;;2.09;45.05;101963.67;1697772;84;22090;-71
2020/12/06 13:04:55;;;;;;;8.48;5.50;;;;;;;2.08;44.35;101969.34;1712187;83;21212;-74
2020/12/06 13:07:22;;;;;;;9.05;5.62;;;;;;;2.01;43.93;101962.52;1706322;82;21188;-72
2020/12/06 13:09:51;;;;;;;8.98;5.22;;;;;;;1.93;44.03;101969.60;1698005;84;21161;-72
2020/12/06 13:14:54;;;;;;;9.65;5.45;;;;;;;1.90;45.49;101965.31;1699139;83;23320;-70
2020/12/06 13:17:22;;;;;;;8.98;4.90;;;;;;;1.82;44.76;101963.73;1718832;82;21206;-73
2020/12/06 13:19:50;;;;;;;21.77;12.65;;;;;;;1.63;44.88;101957.98;1700290;83;21201;-72
2020/12/06 13:22:18;;;;;;;7.12;4.85;;;;;;;1.44;45.33;101957.43;1764050;80;21165;-71
2020/12/06 13:24:48;;;;;;;8.88;4.72;;;;;;;1.17;45.57;101947.03;1758268;80;21058;-72
2020/12/06 13:27:16;;;;;;;10.60;5.08;;;;;;;0.95;46.61;101949.52;1749122;80;21903;-71
2020/12/06 13:32:18;;;;;;;10.82;5.47;;;;;;;0.60;47.61;101955.22;1744577;80;21067;-77
2020/12/06 13:34:50;;;;;;;12.37;6.62;;;;;;;0.42;47.97;101958.91;1747055;80;21503;-72
2020/12/06 13:37:18;;;;;;;8.45;5.40;;;;;;;0.27;48.56;101958.20;1751660;80;21058;-71
2020/12/06 13:39:47;;;;;;;12.88;5.70;;;;;;;-0.01;49.00;101964.12;1745562;80;22060;-73
2020/12/06 13:42:14;;;;;;;6.12;4.20;;;;;;;-0.39;49.68;101970.13;1753389;80;21118;-71
2020/12/06 13:44:41;;;;;;;9.93;5.65;;;;;;;-0.64;50.71;101968.19;1751378;80;21210;-71
2020/12/06 13:47:10;;;;;;;10.38;4.95;;;;;;;-0.99;51.29;101972.31;1752195;80;21504;-72
2020/12/06 13:49:43;;;;;;;7.67;4.95;;;;;;;-1.11;51.99;101970.66;1713803;82;21071;-72
2020/12/06 13:52:11;;;;;;;8.60;5.40;;;;;;;-1.30;52.26;101971.63;1760397;80;22125;-71
2020/12/06 13:54:40;;;;;;;7.20;4.33;;;;;;;-1.47;52.75;101971.26;1744016;80;21498;-70
2020/12/06 13:57:08;;;;;;;13.30;6.75;;;;;;;-1.58;53.27;101970.88;1745016;80;21058;-71
2020/12/06 13:59:38;;;;;;;13.50;6.28;;;;;;;-1.71;53.16;101965.33;1763150;80;21118;-72
2020/12/06 14:02:08;;;;;;;12.58;7.58;;;;;;;-1.74;53.15;101969.66;1761347;80;21052;-72
2020/12/06 14:04:38;;;;;;;10.40;6.22;;;;;;;-1.78;53.23;101967.06;1761775;80;22056;-71
2020/12/06 14:07:06;;;;;;;8.10;5.03;;;;;;;-1.86;53.61;101967.08;1759863;80;21646;-77
2020/12/06 14:09:35;;;;;;;8.10;4.90;;;;;;;-1.97;53.83;101965.39;1774941;80;21074;-69
2020/12/06 14:12:03;;;;;;;8.80;5.33;;;;;;;-2.09;54.26;101967.14;1754337;80;21118;-68
2020/12/06 14:14:34;;;;;;;11.00;5.97;;;;;;;-2.13;54.52;101970.59;1744502;80;22143;-73
2020/12/06 14:17:03;;;;;;;9.65;5.10;;;;;;;-2.15;54.59;101968.44;1770665;80;21906;-74
2020/12/06 14:19:31;;;;;;;9.15;5.50;;;;;;;-2.19;54.74;101971.91;1748408;80;21079;-74
2020/12/06 14:21:59;;;;;;;20.68;10.13;;;;;;;-2.25;54.60;101971.05;1770490;80;21623;-74
2020/12/06 14:24:28;;;;;;;9.03;5.22;;;;;;;-2.29;54.57;101973.22;1764513;80;21173;-73
2020/12/06 14:27:04;;;;;;;9.50;5.67;;;;;;;-2.34;54.50;101974.06;1733329;82;21074;-73
2020/12/06 14:29:37;;;;;;;13.75;6.30;;;;;;;-2.36;54.53;101965.88;1744741;80;22007;-74
2020/12/06 14:32:11;;;;;;;10.30;5.80;;;;;;;-2.41;54.68;101973.66;1755163;80;21090;-71
2020/12/06 14:34:41;;;;;;;10.38;5.70;;;;;;;-2.43;54.77;101972.78;1741038;81;21087;-72
2020/12/06 14:37:09;;;;;;;12.73;6.92;;;;;;;-2.45;54.76;101973.65;1771958;80;21505;-72
2020/12/06 14:39:38;;;;;;;9.30;5.92;;;;;;;-2.43;54.72;101979.67;1762545;80;21071;-74
2020/12/06 14:42:13;;;;;;;11.25;5.85;;;;;;;-2.44;54.97;101978.81;1772582;80;22071;-74
2020/12/06 14:44:42;;;;;;;8.13;4.97;;;;;;;-2.51;55.46;101982.69;1775063;80;21202;-75
2020/12/06 14:47:12;;;;;;;11.22;5.60;;;;;;;-2.61;55.66;101984.41;1772313;80;21075;-77
2020/12/06 14:49:41;;;;;;;9.70;5.58;;;;;;;-2.66;55.89;101982.27;1744388;82;21082;-73
2020/12/06 14:52:09;;;;;;;10.45;5.90;;;;;;;-2.68;56.18;101977.53;1753957;80;21087;-78
2020/12/06 14:54:37;;;;;;;9.75;5.85;;;;;;;-2.70;56.20;101980.13;1760056;80;22083;-77
2020/12/06 14:57:11;;;;;;;12.70;5.87;;;;;;;-2.70;56.36;101975.35;1755061;80;21525;-71
2020/12/06 14:59:40;;;;;;;11.12;5.87;;;;;;;-2.72;56.59;101982.25;1748335;81;21058;-72
2020/12/06 15:02:09;;;;;;;13.03;5.53;;;;;;;-2.76;56.85;101979.25;1755168;80;21072;-75
2020/12/06 15:04:37;;;;;;;11.78;5.83;;;;;;;-2.80;57.19;101974.91;1764474;80;21086;-73
2020/12/06 15:07:12;;;;;;;9.18;5.10;;;;;;;-2.86;57.45;101971.91;1768912;80;22083;-74
2020/12/06 15:09:42;;;;;;;9.73;5.47;;;;;;;-2.90;57.79;101968.87;1760814;80;21798;-74
2020/12/06 15:12:17;;;;;;;10.70;6.00;;;;;;;-2.97;58.23;101965.44;1769277;80;21047;-76
2020/12/06 15:14:49;;;;;;;37.67;17.92;;;;;;;-3.09;58.59;101958.92;1755845;80;21070;-76
2020/12/06 15:17:17;;;;;;;14.20;6.78;;;;;;;-3.14;58.52;101964.53;1708552;84;21093;-76
2020/12/06 15:19:54;;;;;;;11.33;6.33;;;;;;;-3.11;58.74;101964.53;1770995;80;21066;-76
2020/12/06 15:22:24;;;;;;;11.95;6.50;;;;;;;-3.11;58.78;101959.36;1775098;80;21166;-75
2020/12/06 15:24:53;;;;;;;10.53;5.58;;;;;;;-3.11;58.95;101965.81;1775052;80;21110;-74
2020/12/06 15:27:22;;;;;;;11.08;6.03;;;;;;;-3.12;59.43;101962.80;1775051;80;21539;-74
2020/12/06 15:29:54;;;;;;;10.45;6.30;;;;;;;-3.14;59.23;101963.67;1763397;80;21102;-75
2020/12/06 15:32:21;;;;;;;11.15;6.58;;;;;;;-3.15;59.31;101967.97;1758257;80;23303;-70
2020/12/06 15:34:53;;;;;;;10.48;6.47;;;;;;;-3.15;59.36;101970.98;1755673;80;21572;-76
2020/12/06 15:37:26;;;;;;;11.78;7.22;;;;;;;-3.17;59.43;101969.27;1774072;80;21434;-73
2020/12/06 15:39:56;;;;;;;11.63;7.08;;;;;;;-3.18;59.61;101958.94;1759974;80;21119;-72
2020/12/06 15:42:35;;;;;;;16.40;8.40;;;;;;;-3.22;59.81;101963.64;1744152;82;21047;-72
2020/12/06 15:45:11;;;;;;;14.10;7.97;;;;;;;-3.24;59.87;101964.08;1749146;80;21849;-70
2020/12/06 15:47:41;;;;;;;17.42;9.90;;;;;;;-3.25;59.81;101976.13;1761426;80;21149;-72
2020/12/06 15:50:11;;;;;;;14.45;6.92;;;;;;;-3.23;59.90;101973.55;1760116;80;21050;-72
2020/12/06 15:52:41;;;;;;;17.98;9.65;;;;;;;-3.22;59.97;101974.84;1696001;83;21205;-70
2020/12/06 15:55:15;;;;;;;15.38;7.90;;;;;;;-3.21;59.87;101976.56;1685665;84;21183;-71
2020/12/06 15:57:48;;;;;;;16.97;8.58;;;;;;;-3.20;60.04;101969.23;1743102;82;21885;-72
2020/12/06 16:00:15;;;;;;;30.85;16.17;;;;;;;-3.22;60.19;101973.98;1743185;80;21218;-74
2020/12/06 16:02:44;;;;;;;33.98;17.50;;;;;;;-3.28;60.38;101975.23;1772704;80;21194;-73
2020/12/06 16:05:12;;;;;;;24.72;19.48;;;;;;;-3.30;60.57;101982.13;1707430;84;21172;-73
2020/12/06 16:07:42;;;;;;;34.75;26.85;;;;;;;-3.31;60.69;101985.58;1769246;80;21524;-73
2020/12/06 16:10:10;;;;;;;19.17;12.58;;;;;;;-3.31;60.86;101984.28;1743282;82;22047;-71
2020/12/06 16:12:38;;;;;;;25.08;20.48;;;;;;;-3.31;60.86;101977.39;1766319;80;21170;-72
2020/12/06 16:17:40;;;;;;;21.23;14.13;;;;;;;-3.29;60.96;101974.81;1743349;82;22200;-72
2020/12/06 16:20:08;;;;;;;15.48;9.45;;;;;;;-3.28;61.09;101967.48;1748638;80;21164;-72
2020/12/06 16:22:40;;;;;;;18.80;10.20;;;;;;;-3.26;61.06;101969.25;1754190;80;21834;-72
2020/12/06 16:25:08;;;;;;;28.40;12.82;;;;;;;-3.25;61.17;101967.52;1768396;80;21173;-72
2020/12/06 16:27:42;;;;;;;16.52;9.85;;;;;;;-3.26;61.22;101958.91;1782453;80;21144;-71
2020/12/06 16:30:14;;;;;;;15.88;8.05;;;;;;;-3.24;61.10;101959.77;1753387;80;21133;-73
2020/12/06 16:32:45;;;;;;;13.53;8.00;;;;;;;-3.24;61.16;101963.64;1753885;80;21182;-73
2020/12/06 16:37:58;;;;;;;22.90;13.70;;;;;;;-3.24;61.43;101961.49;1751480;82;21167;-72
2020/12/06 16:40:25;;;;;;;13.00;7.37;;;;;;;-3.25;61.45;101955.89;1763552;80;21180;-72
2020/12/06 16:42:53;;;;;;;18.75;11.48;;;;;;;-3.25;61.50;101967.09;1782506;80;21141;-72
2020/12/06 16:45:22;;;;;;;12.88;7.90;;;;;;;-3.23;61.51;101964.50;1775154;80;21115;-71
2020/12/06 16:47:50;;;;;;;13.93;8.40;;;;;;;-3.24;61.59;101958.48;1734484;80;22139;-72
2020/12/06 16:50:19;;;;;;;11.53;6.67;;;;;;;-3.24;61.59;101957.19;1764706;80;21236;-73
2020/12/06 16:55:22;;;;;;;11.28;7.62;;;;;;;-3.23;61.76;101967.95;1760423;80;21153;-72
2020/12/06 16:57:49;;;;;;;17.67;8.13;;;;;;;-3.23;61.94;101961.92;1753625;81;21165;-72
2020/12/06 17:00:23;;;;;;;15.60;11.08;;;;;;;-3.22;61.83;101966.23;1764030;80;22058;-73
2020/12/06 17:02:54;;;;;;;19.02;11.38;;;;;;;-3.20;61.92;101963.21;1765611;80;21168;-72
2020/12/06 17:05:26;;;;;;;15.10;8.80;;;;;;;-3.22;62.00;101960.62;1782498;80;21656;-72
2020/12/06 17:07:54;;;;;;;18.42;10.45;;;;;;;-3.22;61.98;101972.69;1782008;80;21435;-72
2020/12/06 17:10:26;;;;;;;15.05;7.83;;;;;;;-3.23;62.08;101965.37;1782409;80;21616;-75
2020/12/06 17:13:00;;;;;;;15.35;8.85;;;;;;;-3.25;62.04;101963.64;1735396;80;22078;-72
2020/12/06 17:15:29;;;;;;;13.93;8.38;;;;;;;-3.26;62.03;101967.95;1752412;81;21001;-72
2020/12/06 17:18:03;;;;;;;16.57;8.55;;;;;;;-3.27;62.20;101965.37;1752569;81;21074;-72
2020/12/06 17:20:31;;;;;;;12.00;7.17;;;;;;;-3.28;62.31;101970.07;1755116;80;21107;-72
2020/12/06 17:23:00;;;;;;;18.80;8.68;;;;;;;-3.29;62.46;101964.48;1725816;82;21080;-71
2020/12/06 17:25:29;;;;;;;15.20;9.25;;;;;;;-3.31;62.62;101968.34;1741206;82;22061;-72
2020/12/06 17:27:59;;;;;;;21.05;9.75;;;;;;;-3.33;62.77;101971.80;1722321;82;21095;-69
2020/12/06 17:30:27;;;;;;;20.23;8.73;;;;;;;-3.34;62.91;101976.10;1739553;82;21127;-71
2020/12/06 17:33:01;;;;;;;21.85;10.48;;;;;;;-3.33;62.95;101971.80;1719708;83;21502;-74
2020/12/06 17:35:33;;;;;;;20.05;9.45;;;;;;;-3.35;63.03;101970.51;1719645;83;21090;-72
2020/12/06 17:38:01;;;;;;;15.63;8.83;;;;;;;-3.38;63.13;101973.48;1702510;82;22085;-71
2020/12/06 17:40:33;;;;;;;15.10;8.88;;;;;;;-3.40;63.14;101968.32;1733006;82;21162;-72
2020/12/06 17:43:03;;;;;;;16.85;9.40;;;;;;;-3.42;63.23;101972.63;1725843;80;21199;-73
2020/12/06 17:45:38;;;;;;;16.50;9.18;;;;;;;-3.43;63.21;101981.23;1738748;80;21455;-80
2020/12/06 17:48:06;;;;;;;15.30;8.98;;;;;;;-3.44;63.39;101976.06;1731709;80;21552;-77
2020/12/06 17:50:34;;;;;;;13.30;7.62;;;;;;;-3.47;63.38;101970.47;1735415;80;22061;-74
2020/12/06 17:53:10;;;;;;;13.93;7.62;;;;;;;-3.47;63.47;101979.08;1736522;80;21438;-75
2020/12/06 17:55:37;;;;;;;15.43;9.55;;;;;;;-3.48;63.67;101979.91;1718653;83;21219;-74
2020/12/06 17:58:12;;;;;;;11.03;6.40;;;;;;;-3.48;63.67;101981.63;1718777;82;21195;-75
2020/12/06 18:00:39;;;;;;;15.10;9.35;;;;;;;-3.49;63.65;101966.56;1738248;82;21581;-75
2020/12/06 18:03:08;;;;;;;12.90;7.00;;;;;;;-3.48;63.62;101965.70;1749451;82;22041;-76
2020/12/06 18:05:37;;;;;;;13.35;6.83;;;;;;;-3.48;63.61;101963.55;1749410;81;21577;-75
2020/12/06 18:08:06;;;;;;;85.12;40.55;;;;;;;-3.49;63.61;101963.12;1749531;82;21590;-74
2020/12/06 18:10:34;;;;;;;19.20;11.15;;;;;;;-3.50;63.64;101966.56;1721120;82;21167;-76
2020/12/06 18:13:07;;;;;;;16.27;8.90;;;;;;;-3.52;63.62;101971.73;1699714;84;21568;-76
2020/12/06 18:15:38;;;;;;;14.07;7.22;;;;;;;-3.53;63.49;101967.85;1699690;84;22069;-75
2020/12/06 18:18:07;;;;;;;11.90;6.53;;;;;;;-3.54;63.43;101981.63;1733611;82;21159;-75
2020/12/06 18:20:35;;;;;;;12.28;7.10;;;;;;;-3.54;63.52;101979.05;1759065;80;21137;-76
2020/12/06 18:23:05;;;;;;;9.50;5.92;;;;;;;-3.57;63.48;101987.65;1775028;80;21917;-76
2020/12/06 18:25:36;;;;;;;14.03;6.70;;;;;;;-3.60;63.54;101982.87;1774974;80;21149;-74
2020/12/06 18:28:10;;;;;;;14.40;7.25;;;;;;;-3.65;63.63;101985.45;1771491;80;22022;-74
2020/12/06 18:30:43;;;;;;;15.63;8.25;;;;;;;-3.68;63.72;101985.84;1774900;80;21087;-75
2020/12/06 18:33:12;;;;;;;14.40;7.85;;;;;;;-3.71;63.75;101988.00;1774993;80;21058;-75
2020/12/06 18:35:40;;;;;;;16.80;8.15;;;;;;;-3.75;63.87;101988.84;1774941;80;21075;-75
2020/12/06 18:38:18;;;;;;;13.18;7.28;;;;;;;-3.79;63.87;101998.27;1774734;80;21655;-75
2020/12/06 18:40:46;;;;;;;16.37;8.28;;;;;;;-3.82;63.87;101990.95;1774876;80;22062;-75
2020/12/06 18:43:18;;;;;;;14.95;7.20;;;;;;;-3.86;63.91;102002.09;1775082;80;21137;-76
2020/12/06 18:45:49;;;;;;;12.37;6.15;;;;;;;-3.88;64.04;101994.78;1773956;80;21043;-76
2020/12/06 18:48:24;;;;;;;18.00;7.70;;;;;;;-3.93;64.05;101988.74;1757050;80;21166;-75
2020/12/06 18:50:57;;;;;;;18.77;8.60;;;;;;;-3.98;64.20;101985.25;1744541;82;20959;-74
2020/12/06 18:53:28;;;;;;;17.55;8.65;;;;;;;-4.04;64.18;101998.58;1744306;82;21886;-74
2020/12/06 18:56:00;;;;;;;14.28;8.90;;;;;;;-4.10;64.14;101989.49;1744272;81;21498;-74
2020/12/06 18:58:35;;;;;;;16.40;8.25;;;;;;;-4.15;64.18;101984.74;1746697;80;21086;-75
2020/12/06 19:01:07;;;;;;;11.83;6.47;;;;;;;-4.19;64.17;101993.72;1747326;80;21466;-75
2020/12/06 19:03:41;;;;;;;16.12;9.85;;;;;;;-4.22;64.37;101990.70;1744240;82;21071;-75
2020/12/06 19:06:10;;;;;;;16.62;9.18;;;;;;;-4.27;64.64;102001.40;1744275;82;22056;-75
2020/12/06 19:11:44;;;;;;;14.78;8.25;;;;;;;-4.36;64.86;101989.72;1659626;83;21069;-69
2020/12/06 19:14:16;;;;;;;15.03;8.38;;;;;;;-4.40;64.94;101987.98;1663895;84;21499;-69
2020/12/06 19:16:52;;;;;;;12.43;6.15;;;;;;;-4.45;64.90;101985.35;1692154;84;21166;-69
2020/12/06 19:19:20;;;;;;;18.75;10.45;;;;;;;-4.46;65.14;101985.34;1705210;83;22061;-69
2020/12/06 19:21:49;;;;;;;18.10;11.88;;;;;;;-4.51;65.18;101990.48;1708970;83;21632;-70
2020/12/06 19:24:21;;;;;;;13.60;7.37;;;;;;;-4.53;65.30;101987.46;1692671;84;21118;-69
2020/12/06 19:26:55;;;;;;;10.53;6.00;;;;;;;-4.57;65.45;102002.02;1688205;84;21072;-70
2020/12/06 19:29:23;;;;;;;12.60;8.50;;;;;;;-4.59;65.50;101996.42;1685539;85;21387;-69
2020/12/06 19:31:52;;;;;;;16.52;6.97;;;;;;;-4.62;65.48;102007.58;1684521;83;22074;-70
2020/12/06 19:34:19;;;;;;;15.35;8.73;;;;;;;-4.64;65.53;102006.67;1704360;83;21570;-69
2020/12/06 19:36:47;;;;;;;15.15;7.67;;;;;;;-4.69;65.58;102014.38;1690131;83;21113;-69
2020/12/06 19:39:16;;;;;;;11.55;7.03;;;;;;;-4.72;65.65;102005.34;1714120;83;22539;-69
2020/12/06 19:41:50;;;;;;;13.43;8.13;;;;;;;-4.75;65.63;102007.01;1701935;83;21153;-69
2020/12/06 19:44:20;;;;;;;14.13;8.13;;;;;;;-4.76;65.65;102014.30;1666212;86;21895;-69
2020/12/06 19:46:50;;;;;;;13.38;8.25;;;;;;;-4.77;65.67;102019.02;1681067;85;21174;-69
2020/12/06 19:49:26;;;;;;;14.25;7.33;;;;;;;-4.79;65.64;102013.86;1691136;83;21088;-70
2020/12/06 19:51:55;;;;;;;12.43;7.05;;;;;;;-4.81;65.73;102006.97;1698273;83;22583;-69
2020/12/06 19:54:22;;;;;;;13.03;7.45;;;;;;;-4.87;65.80;102005.18;1712113;83;21094;-69
2020/12/06 19:57:02;;;;;;;13.08;7.17;;;;;;;-4.91;65.88;102006.87;1712104;83;21541;-69
2020/12/06 19:59:31;;;;;;;16.73;7.85;;;;;;;-4.95;65.93;101999.08;1712151;83;26280;-70
2020/12/06 20:02:02;;;;;;;12.20;5.90;;;;;;;-4.97;66.02;101999.07;1685998;83;21587;-69
2020/12/06 20:04:30;;;;;;;13.15;6.67;;;;;;;-4.98;66.35;102002.50;1623280;86;21176;-69
2020/12/06 20:07:06;;;;;;;14.90;8.25;;;;;;;-5.01;66.29;101988.73;1666261;86;21005;-69
2020/12/06 20:09:37;;;;;;;12.00;7.40;;;;;;;-5.05;66.23;101989.53;1675393;83;21992;-69
2020/12/06 20:12:07;;;;;;;15.20;8.95;;;;;;;-5.08;66.30;101998.09;1705691;84;22406;-69
2020/12/06 20:14:35;;;;;;;15.20;7.67;;;;;;;-5.09;66.41;101998.95;1709523;84;21092;-69
2020/12/06 20:17:04;;;;;;;13.30;7.17;;;;;;;-5.10;66.59;101993.79;1709497;84;21238;-70
2020/12/06 20:19:39;;;;;;;13.55;8.13;;;;;;;-5.14;66.67;101999.31;1706875;84;21589;-70
2020/12/06 20:22:09;;;;;;;16.27;8.60;;;;;;;-5.17;66.85;101998.00;1679799;85;22067;-70
2020/12/06 20:24:36;;;;;;;15.35;8.35;;;;;;;-5.19;67.06;102012.58;1692077;84;21201;-69
2020/12/06 20:27:06;;;;;;;14.70;8.18;;;;;;;-5.21;66.98;102002.27;1677591;85;21527;-69
2020/12/06 20:29:36;;;;;;;17.85;8.50;;;;;;;-5.22;67.04;102009.52;1701291;82;21172;-70
2020/12/06 20:32:08;;;;;;;17.90;8.45;;;;;;;-5.22;67.11;102012.52;1698359;82;21185;-70
2020/12/06 20:34:39;;;;;;;11.90;7.08;;;;;;;-5.23;67.22;102021.96;1691830;84;22123;-71
2020/12/06 20:37:14;;;;;;;16.52;7.42;;;;;;;-5.25;67.24;102026.66;1671683;84;21081;-70
2020/12/06 20:39:44;;;;;;;15.13;9.10;;;;;;;-5.27;67.28;102018.92;1692203;82;21102;-70
2020/12/06 20:42:11;;;;;;;13.93;7.83;;;;;;;-5.28;67.26;102018.48;1699261;82;21169;-70
2020/12/06 20:44:42;;;;;;;13.05;7.72;;;;;;;-5.29;67.22;102018.47;1692421;83;21130;-70
2020/12/06 20:47:12;;;;;;;16.70;9.38;;;;;;;-5.29;67.32;102026.20;1691964;84;22063;-71
2020/12/06 20:49:40;;;;;;;16.05;7.58;;;;;;;-5.29;67.31;102028.77;1691740;83;21145;-70
2020/12/06 20:52:10;;;;;;;15.95;9.20;;;;;;;-5.32;67.38;102035.16;1691789;84;21122;-70
2020/12/06 20:54:38;;;;;;;12.60;7.10;;;;;;;-5.35;67.41;102043.72;1691768;84;21142;-71
2020/12/06 20:57:08;;;;;;;15.10;7.42;;;;;;;-5.33;67.60;102041.15;1691723;84;21137;-71
2020/12/06 20:59:36;;;;;;;17.50;9.45;;;;;;;-5.33;67.68;102043.30;1702242;82;22894;-70
2020/12/06 21:02:05;;;;;;;15.70;9.33;;;;;;;-5.35;67.76;102053.16;1708136;83;21077;-73
2020/12/06 21:04:33;;;;;;;70.47;39.90;;;;;;;-5.36;67.69;102054.00;1703413;83;21189;-70
2020/12/06 21:07:04;;;;;;;23.87;12.93;;;;;;;-5.36;67.71;102055.28;1691101;83;21175;-73
2020/12/06 21:09:34;;;;;;;22.27;11.68;;;;;;;-5.35;67.71;102063.02;1700068;83;21123;-75
2020/12/06 21:12:10;;;;;;;43.58;22.60;;;;;;;-5.35;67.70;102056.59;1687307;83;22749;-74
2020/12/06 21:14:38;;;;;;;21.70;10.72;;;;;;;-5.34;67.72;102050.59;1667025;85;21177;-75
2020/12/06 21:17:05;;;;;;;15.15;8.78;;;;;;;-5.34;67.74;102047.15;1663394;86;21146;-73
2020/12/06 21:19:34;;;;;;;14.35;8.55;;;;;;;-5.36;67.73;102048.42;1666860;84;21308;-74
2020/12/06 21:22:07;;;;;;;20.48;10.20;;;;;;;-5.38;67.78;102045.39;1667655;85;21514;-70
2020/12/06 21:24:36;;;;;;;11.08;6.55;;;;;;;-5.39;67.81;102051.39;1671468;84;21900;-69
2020/12/06 21:27:11;;;;;;;16.27;9.70;;;;;;;-5.41;67.90;102049.20;1664423;84;21105;-70
2020/12/06 21:29:39;;;;;;;12.78;6.60;;;;;;;-5.44;67.91;102053.89;1663567;84;21221;-69
2020/12/06 21:32:07;;;;;;;14.70;7.17;;;;;;;-5.47;67.99;102058.59;1664790;84;21185;-69
2020/12/06 21:34:38;;;;;;;12.70;8.50;;;;;;;-5.49;67.98;102059.42;1662755;84;21153;-69
2020/12/06 21:37:10;;;;;;;13.83;7.83;;;;;;;-5.51;67.96;102050.36;1661644;84;27760;-69
2020/12/06 21:39:46;;;;;;;15.00;7.03;;;;;;;-5.51;67.92;102050.78;1663374;84;21148;-69
2020/12/06 21:42:14;;;;;;;16.17;8.73;;;;;;;-5.51;67.89;102041.35;1662985;84;21566;-69
2020/12/06 21:44:41;;;;;;;15.45;8.33;;;;;;;-5.52;67.86;102038.77;1663765;86;21193;-69
2020/12/06 21:47:09;;;;;;;15.60;8.23;;;;;;;-5.53;67.83;102033.17;1663023;84;21189;-70
2020/12/06 21:49:37;;;;;;;12.47;7.97;;;;;;;-5.56;67.75;102034.01;1654341;85;21885;-69
2020/12/06 21:52:06;;;;;;;14.68;6.90;;;;;;;-5.60;67.78;102033.93;1668086;85;21426;-69
2020/12/06 21:54:33;;;;;;;15.45;7.85;;;;;;;-5.63;67.78;102024.89;1663720;84;21092;-69
2020/12/06 21:57:01;;;;;;;13.80;7.80;;;;;;;-5.69;67.76;102026.09;1662730;84;21166;-69
2020/12/06 21:59:30;;;;;;;12.05;6.45;;;;;;;-5.74;67.75;102013.59;1662726;84;21171;-69
2020/12/06 22:01:58;;;;;;;13.28;8.00;;;;;;;-5.80;67.77;102016.51;1663587;84;21913;-69
2020/12/06 22:04:26;;;;;;;12.75;7.12;;;;;;;-5.83;67.79;102015.19;1664126;84;21210;-69
2020/12/06 22:06:54;;;;;;;15.30;7.95;;;;;;;-5.84;67.73;102017.33;1673224;84;21516;-69
2020/12/06 22:09:25;;;;;;;14.80;7.87;;;;;;;-5.85;67.64;102020.74;1663086;84;21169;-69
2020/12/06 22:11:53;;;;;;;14.15;8.10;;;;;;;-5.86;67.57;102020.30;1670912;84;21061;-69
2020/12/06 22:14:21;;;;;;;15.38;8.55;;;;;;;-5.89;67.50;102019.38;1700488;83;21983;-69
2020/12/06 22:16:49;;;;;;;13.48;6.35;;;;;;;-5.92;67.44;102017.66;1696178;82;21479;-69
2020/12/06 22:19:18;;;;;;;12.82;6.80;;;;;;;-5.96;67.38;102018.48;1694220;84;21125;-69
2020/12/06 22:21:46;;;;;;;10.63;6.10;;;;;;;-5.99;67.35;102008.55;1697017;82;21526;-69
2020/12/06 22:24:14;;;;;;;16.65;8.18;;;;;;;-6.05;67.34;102018.34;1706738;82;21515;-69
2020/12/06 22:26:42;;;;;;;11.25;6.12;;;;;;;-6.08;67.28;102028.17;1702988;82;22029;-70
2020/12/06 22:29:11;;;;;;;14.43;7.95;;;;;;;-6.11;67.31;102024.24;1694211;83;21098;-69
2020/12/06 22:31:39;;;;;;;17.17;8.18;;;;;;;-6.13;67.29;102017.36;1698144;82;21101;-69
2020/12/06 22:34:07;;;;;;;13.95;7.65;;;;;;;-6.15;67.29;102026.34;1694247;83;21183;-67
2020/12/06 22:36:35;;;;;;;15.18;8.03;;;;;;;-6.16;67.32;102027.19;1694262;83;21341;-73
2020/12/06 22:39:04;;;;;;;18.00;8.60;;;;;;;-6.17;67.33;102027.16;1705585;82;22068;-73
2020/12/06 22:41:31;;;;;;;13.22;7.35;;;;;;;-6.17;67.39;102023.30;1711052;83;21099;-72
2020/12/06 22:44:00;;;;;;;14.90;8.00;;;;;;;-6.17;67.44;102020.73;1712536;82;21178;-75
2020/12/06 22:46:31;;;;;;;12.98;7.92;;;;;;;-6.19;67.46;102027.11;1710606;83;21139;-73
2020/12/06 22:48:59;;;;;;;10.08;5.30;;;;;;;-6.21;67.50;102036.52;1709467;82;21155;-73
2020/12/06 22:51:27;;;;;;;17.98;7.85;;;;;;;-6.24;67.50;102018.48;1712979;83;22058;-73
2020/12/06 22:53:55;;;;;;;13.88;7.55;;;;;;;-6.25;67.50;102016.75;1713119;83;21344;-75
2020/12/06 22:56:22;;;;;;;14.45;7.75;;;;;;;-6.26;67.45;102024.45;1711455;82;21100;-74
2020/12/06 22:58:53;;;;;;;11.20;5.85;;;;;;;-6.31;67.45;102021.78;1706805;83;21179;-74
2020/12/06 23:01:26;;;;;;;9.00;5.25;;;;;;;-6.27;67.46;102031.69;1707062;82;21084;-74
2020/12/06 23:03:54;;;;;;;9.65;4.83;;;;;;;-6.30;67.42;102021.36;1711165;83;22070;-75
2020/12/06 23:09:01;;;;;;;14.77;7.87;;;;;;;-6.31;67.39;102029.92;1874583;75;22039;-78
2020/12/06 23:11:28;;;;;;;12.20;5.55;;;;;;;-6.38;67.38;102025.95;1833237;77;21037;-72
2020/12/06 23:13:58;;;;;;;13.45;7.03;;;;;;;-6.39;67.56;102028.08;1827096;78;22050;-71
2020/12/06 23:16:25;;;;;;;11.63;6.87;;;;;;;-6.40;67.51;102017.78;1810999;78;21065;-73
2020/12/06 23:18:54;;;;;;;14.47;6.80;;;;;;;-6.44;67.52;102014.30;1828213;77;21133;-70
2020/12/06 23:21:21;;;;;;;13.72;6.47;;;;;;;-6.48;67.57;102015.08;1828227;77;21041;-70
2020/12/06 23:23:49;;;;;;;13.93;8.13;;;;;;;-6.48;67.58;102015.50;1789179;77;21060;-71
2020/12/06 23:26:17;;;;;;;14.25;7.85;;;;;;;-6.50;67.71;102023.19;1832206;77;21928;-73
2020/12/06 23:28:46;;;;;;;12.53;7.80;;;;;;;-6.51;67.84;102006.46;1830221;78;21188;-70
2020/12/06 23:31:20;;;;;;;15.83;7.95;;;;;;;-6.52;67.76;102018.45;1830995;77;21117;-71
2020/12/06 23:33:49;;;;;;;12.35;5.83;;;;;;;-6.53;67.79;102005.58;1832112;77;21044;-70
2020/12/06 23:36:17;;;;;;;11.28;5.85;;;;;;;-6.55;67.83;102006.84;1827765;78;21109;-72
2020/12/06 23:38:44;;;;;;;13.68;8.05;;;;;;;-6.55;67.90;102001.70;1827283;78;22118;-73
2020/12/06 23:41:13;;;;;;;14.93;7.58;;;;;;;-6.56;67.89;102003.83;1829921;77;21533;-71
2020/12/06 23:43:41;;;;;;;13.53;6.67;;;;;;;-6.55;67.88;102016.26;1804680;77;21456;-71
2020/12/06 23:46:09;;;;;;;15.40;8.50;;;;;;;-6.56;67.92;102010.26;1835390;77;21048;-72
2020/12/06 23:48:36;;;;;;;10.60;5.58;;;;;;;-6.57;67.77;102014.92;1836869;77;21144;-71
2020/12/06 23:51:04;;;;;;;10.88;5.95;;;;;;;-6.59;67.91;102006.33;1827975;77;22781;-70
2020/12/06 23:53:32;;;;;;;13.95;7.83;;;;;;;-6.58;67.96;102029.03;1827093;77;21080;-70
2020/12/06 23:56:02;;;;;;;11.30;6.25;;;;;;;-6.60;67.95;102026.87;1801845;79;21096;-71
2020/12/06 23:58:31;;;;;;;12.78;6.85;;;;;;;-6.60;67.96;102025.16;1798528;79;21060;-74
